sensor_id;sensor_type;location;lat;lon;timestamp;P1;durP1;ratioP1;P2;durP2;ratioP2
5428;SDS011;2737;52.386;9.980;2023-02-01T00:01:36;19.60;;;3.27;;
5428;SDS011;2737;52.386;9.980;2023-02-01T00:04:03;20.33;;;4.00;;
5428;SDS011;2737;52.386;9.980;2023-02-01T00:06:30;15.90;;;2.70;;
5428;SDS011;2737;52.386;9.980;2023-02-01T00:08:57;19.63;;;3.03;;
5428;SDS011;2737;52.386;9.980;2023-02-01T00:11:24;24.03;;;3.97;;
5428;SDS011;2737;52.386;9.980;2023-02-01T00:13:52;22.43;;;2.77;;
5428;SDS011;2737;52.386;9.980;2023-02-01T00:16:20;17.77;;;3.43;;
5428;SDS011;2737;52.386;9.980;2023-02-01T00:18:50;22.47;;;4.10;;
5428;SDS011;2737;52.386;9.980;2023-02-01T00:21:24;15.43;;;3.23;;
5428;SDS011;2737;52.386;9.980;2023-02-01T00:23:52;21.47;;;2.90;;
5428;SDS011;2737;52.386;9.980;2023-02-01T00:26:20;22.57;;;3.23;;
5428;SDS011;2737;52.386;9.980;2023-02-01T00:28:52;23.83;;;4.03;;
5428;SDS011;2737;52.386;9.980;2023-02-01T00:31:19;21.13;;;3.77;;
5428;SDS011;2737;52.386;9.980;2023-02-01T00:33:46;32.23;;;4.00;;
5428;SDS011;2737;52.386;9.980;2023-02-01T00:36:15;16.60;;;3.40;;
5428;SDS011;2737;52.386;9.980;2023-02-01T00:38:43;14.33;;;3.87;;
5428;SDS011;2737;52.386;9.980;2023-02-01T00:41:11;13.47;;;2.90;;
5428;SDS011;2737;52.386;9.980;2023-02-01T00:43:39;11.23;;;2.77;;
5428;SDS011;2737;52.386;9.980;2023-02-01T00:46:07;17.57;;;3.10;;
5428;SDS011;2737;52.386;9.980;2023-02-01T00:48:35;16.03;;;3.00;;
5428;SDS011;2737;52.386;9.980;2023-02-01T00:51:03;13.40;;;2.70;;
5428;SDS011;2737;52.386;9.980;2023-02-01T00:53:33;22.13;;;3.93;;
5428;SDS011;2737;52.386;9.980;2023-02-01T00:56:00;20.63;;;3.63;;
5428;SDS011;2737;52.386;9.980;2023-02-01T00:58:27;19.97;;;3.10;;
5428;SDS011;2737;52.386;9.980;2023-02-01T01:01:01;22.83;;;3.40;;
5428;SDS011;2737;52.386;9.980;2023-02-01T01:03:30;23.57;;;4.40;;
5428;SDS011;2737;52.386;9.980;2023-02-01T01:05:59;19.77;;;3.03;;
5428;SDS011;2737;52.386;9.980;2023-02-01T01:08:28;15.83;;;2.73;;
5428;SDS011;2737;52.386;9.980;2023-02-01T01:10:57;22.27;;;3.47;;
5428;SDS011;2737;52.386;9.980;2023-02-01T01:13:24;20.87;;;2.80;;
5428;SDS011;2737;52.386;9.980;2023-02-01T01:15:51;16.40;;;3.73;;
5428;SDS011;2737;52.386;9.980;2023-02-01T01:18:18;23.53;;;3.70;;
5428;SDS011;2737;52.386;9.980;2023-02-01T01:20:45;14.83;;;3.50;;
5428;SDS011;2737;52.386;9.980;2023-02-01T01:23:13;14.53;;;3.10;;
5428;SDS011;2737;52.386;9.980;2023-02-01T01:25:40;17.50;;;2.80;;
5428;SDS011;2737;52.386;9.980;2023-02-01T01:28:09;19.00;;;3.27;;
5428;SDS011;2737;52.386;9.980;2023-02-01T01:30:36;30.33;;;3.60;;
5428;SDS011;2737;52.386;9.980;2023-02-01T01:33:03;19.10;;;3.53;;
5428;SDS011;2737;52.386;9.980;2023-02-01T01:35:31;21.30;;;3.83;;
5428;SDS011;2737;52.386;9.980;2023-02-01T01:37:59;18.67;;;3.27;;
5428;SDS011;2737;52.386;9.980;2023-02-01T01:40:26;18.93;;;3.10;;
5428;SDS011;2737;52.386;9.980;2023-02-01T01:42:54;23.20;;;3.07;;
5428;SDS011;2737;52.386;9.980;2023-02-01T01:45:25;20.77;;;3.33;;
5428;SDS011;2737;52.386;9.980;2023-02-01T01:47:54;15.30;;;3.07;;
5428;SDS011;2737;52.386;9.980;2023-02-01T01:50:24;17.87;;;4.10;;
5428;SDS011;2737;52.386;9.980;2023-02-01T01:52:54;16.13;;;2.60;;
5428;SDS011;2737;52.386;9.980;2023-02-01T01:55:24;26.00;;;3.70;;
5428;SDS011;2737;52.386;9.980;2023-02-01T01:57:55;18.83;;;3.40;;
5428;SDS011;2737;52.386;9.980;2023-02-01T02:00:26;22.63;;;4.00;;
5428;SDS011;2737;52.386;9.980;2023-02-01T02:02:54;18.27;;;3.77;;
5428;SDS011;2737;52.386;9.980;2023-02-01T02:05:25;25.30;;;3.10;;
5428;SDS011;2737;52.386;9.980;2023-02-01T02:07:53;19.47;;;2.80;;
5428;SDS011;2737;52.386;9.980;2023-02-01T02:10:25;24.47;;;3.47;;
5428;SDS011;2737;52.386;9.980;2023-02-01T02:13:14;17.03;;;2.73;;
5428;SDS011;2737;52.386;9.980;2023-02-01T02:15:58;21.37;;;3.37;;
5428;SDS011;2737;52.386;9.980;2023-02-01T02:18:37;11.10;;;2.83;;
5428;SDS011;2737;52.386;9.980;2023-02-01T02:21:16;17.30;;;2.67;;
5428;SDS011;2737;52.386;9.980;2023-02-01T02:27:01;16.13;;;3.20;;
5428;SDS011;2737;52.386;9.980;2023-02-01T02:29:55;16.43;;;2.63;;
5428;SDS011;2737;52.386;9.980;2023-02-01T02:35:56;23.57;;;3.57;;
5428;SDS011;2737;52.386;9.980;2023-02-01T02:38:30;20.40;;;3.20;;
5428;SDS011;2737;52.386;9.980;2023-02-01T02:41:07;12.10;;;2.20;;
5428;SDS011;2737;52.386;9.980;2023-02-01T02:43:59;23.67;;;3.37;;
5428;SDS011;2737;52.386;9.980;2023-02-01T02:46:53;21.73;;;3.80;;
5428;SDS011;2737;52.386;9.980;2023-02-01T02:49:44;22.33;;;4.63;;
5428;SDS011;2737;52.386;9.980;2023-02-01T02:52:42;14.40;;;3.27;;
5428;SDS011;2737;52.386;9.980;2023-02-01T02:55:31;25.63;;;3.20;;
5428;SDS011;2737;52.386;9.980;2023-02-01T02:58:02;16.90;;;3.33;;
5428;SDS011;2737;52.386;9.980;2023-02-01T03:00:48;20.17;;;2.83;;
5428;SDS011;2737;52.386;9.980;2023-02-01T03:03:36;16.63;;;3.47;;
5428;SDS011;2737;52.386;9.980;2023-02-01T03:06:22;14.43;;;2.87;;
5428;SDS011;2737;52.386;9.980;2023-02-01T03:08:51;19.77;;;2.80;;
5428;SDS011;2737;52.386;9.980;2023-02-01T03:11:22;25.87;;;3.80;;
5428;SDS011;2737;52.386;9.980;2023-02-01T03:14:12;20.47;;;3.43;;
5428;SDS011;2737;52.386;9.980;2023-02-01T03:16:41;19.73;;;3.33;;
5428;SDS011;2737;52.386;9.980;2023-02-01T03:19:14;18.03;;;3.37;;
5428;SDS011;2737;52.386;9.980;2023-02-01T03:21:47;21.83;;;3.10;;
5428;SDS011;2737;52.386;9.980;2023-02-01T03:24:18;19.23;;;3.53;;
5428;SDS011;2737;52.386;9.980;2023-02-01T03:26:58;22.40;;;2.60;;
5428;SDS011;2737;52.386;9.980;2023-02-01T03:29:31;26.60;;;3.03;;
5428;SDS011;2737;52.386;9.980;2023-02-01T03:32:04;25.23;;;3.20;;
5428;SDS011;2737;52.386;9.980;2023-02-01T03:34:31;30.57;;;3.63;;
5428;SDS011;2737;52.386;9.980;2023-02-01T03:36:59;15.43;;;3.30;;
5428;SDS011;2737;52.386;9.980;2023-02-01T03:39:31;19.40;;;3.70;;
5428;SDS011;2737;52.386;9.980;2023-02-01T03:42:03;25.03;;;3.63;;
5428;SDS011;2737;52.386;9.980;2023-02-01T03:44:35;25.17;;;3.00;;
5428;SDS011;2737;52.386;9.980;2023-02-01T03:47:07;19.83;;;3.40;;
5428;SDS011;2737;52.386;9.980;2023-02-01T03:49:39;22.47;;;2.80;;
5428;SDS011;2737;52.386;9.980;2023-02-01T03:52:10;16.77;;;3.30;;
5428;SDS011;2737;52.386;9.980;2023-02-01T03:54:41;20.20;;;2.90;;
5428;SDS011;2737;52.386;9.980;2023-02-01T03:57:09;16.07;;;3.00;;
5428;SDS011;2737;52.386;9.980;2023-02-01T03:59:40;19.53;;;2.97;;
5428;SDS011;2737;52.386;9.980;2023-02-01T04:02:08;10.93;;;2.63;;
5428;SDS011;2737;52.386;9.980;2023-02-01T04:04:35;13.30;;;3.80;;
5428;SDS011;2737;52.386;9.980;2023-02-01T04:07:02;22.37;;;3.10;;
5428;SDS011;2737;52.386;9.980;2023-02-01T04:09:30;13.93;;;2.70;;
5428;SDS011;2737;52.386;9.980;2023-02-01T04:11:58;15.13;;;2.83;;
5428;SDS011;2737;52.386;9.980;2023-02-01T04:14:25;19.47;;;3.20;;
5428;SDS011;2737;52.386;9.980;2023-02-01T04:16:52;22.90;;;3.27;;
5428;SDS011;2737;52.386;9.980;2023-02-01T04:19:19;22.50;;;2.63;;
5428;SDS011;2737;52.386;9.980;2023-02-01T04:21:46;14.03;;;2.97;;
5428;SDS011;2737;52.386;9.980;2023-02-01T04:24:13;18.63;;;4.10;;
5428;SDS011;2737;52.386;9.980;2023-02-01T04:26:40;16.63;;;3.77;;
5428;SDS011;2737;52.386;9.980;2023-02-01T04:29:09;24.60;;;2.90;;
5428;SDS011;2737;52.386;9.980;2023-02-01T04:31:37;18.57;;;2.97;;
5428;SDS011;2737;52.386;9.980;2023-02-01T04:34:04;22.97;;;3.20;;
5428;SDS011;2737;52.386;9.980;2023-02-01T04:36:31;18.80;;;3.10;;
5428;SDS011;2737;52.386;9.980;2023-02-01T04:38:58;18.83;;;3.37;;
5428;SDS011;2737;52.386;9.980;2023-02-01T04:41:25;21.27;;;3.40;;
5428;SDS011;2737;52.386;9.980;2023-02-01T04:43:52;15.87;;;2.97;;
5428;SDS011;2737;52.386;9.980;2023-02-01T04:46:20;20.80;;;3.17;;
5428;SDS011;2737;52.386;9.980;2023-02-01T04:48:47;17.67;;;3.33;;
5428;SDS011;2737;52.386;9.980;2023-02-01T04:51:14;15.13;;;2.90;;
5428;SDS011;2737;52.386;9.980;2023-02-01T04:53:43;20.50;;;3.43;;
5428;SDS011;2737;52.386;9.980;2023-02-01T04:56:10;23.13;;;3.90;;
5428;SDS011;2737;52.386;9.980;2023-02-01T04:58:37;18.97;;;3.70;;
5428;SDS011;2737;52.386;9.980;2023-02-01T05:01:05;23.57;;;3.20;;
5428;SDS011;2737;52.386;9.980;2023-02-01T05:03:35;27.10;;;3.77;;
5428;SDS011;2737;52.386;9.980;2023-02-01T05:06:02;21.57;;;3.77;;
5428;SDS011;2737;52.386;9.980;2023-02-01T05:08:30;20.00;;;3.80;;
5428;SDS011;2737;52.386;9.980;2023-02-01T05:10:57;17.90;;;2.80;;
5428;SDS011;2737;52.386;9.980;2023-02-01T05:13:27;12.70;;;3.90;;
5428;SDS011;2737;52.386;9.980;2023-02-01T05:16:11;18.37;;;3.23;;
5428;SDS011;2737;52.386;9.980;2023-02-01T05:18:40;21.40;;;3.57;;
5428;SDS011;2737;52.386;9.980;2023-02-01T05:21:07;19.57;;;3.57;;
5428;SDS011;2737;52.386;9.980;2023-02-01T05:23:34;16.47;;;3.90;;
5428;SDS011;2737;52.386;9.980;2023-02-01T05:26:22;17.23;;;4.00;;
5428;SDS011;2737;52.386;9.980;2023-02-01T05:28:49;16.57;;;3.87;;
5428;SDS011;2737;52.386;9.980;2023-02-01T05:31:17;23.80;;;4.70;;
5428;SDS011;2737;52.386;9.980;2023-02-01T05:33:45;8.03;;;2.80;;
5428;SDS011;2737;52.386;9.980;2023-02-01T05:36:12;17.23;;;3.30;;
5428;SDS011;2737;52.386;9.980;2023-02-01T05:38:40;16.43;;;4.13;;
5428;SDS011;2737;52.386;9.980;2023-02-01T05:41:07;28.77;;;4.27;;
5428;SDS011;2737;52.386;9.980;2023-02-01T05:43:34;21.00;;;4.67;;
5428;SDS011;2737;52.386;9.980;2023-02-01T05:46:01;15.00;;;3.87;;
5428;SDS011;2737;52.386;9.980;2023-02-01T05:48:28;17.70;;;4.03;;
5428;SDS011;2737;52.386;9.980;2023-02-01T05:50:56;21.33;;;3.77;;
5428;SDS011;2737;52.386;9.980;2023-02-01T05:53:23;15.83;;;4.03;;
5428;SDS011;2737;52.386;9.980;2023-02-01T05:55:50;25.40;;;4.73;;
5428;SDS011;2737;52.386;9.980;2023-02-01T05:58:17;23.70;;;4.30;;
5428;SDS011;2737;52.386;9.980;2023-02-01T06:00:44;14.33;;;3.60;;
5428;SDS011;2737;52.386;9.980;2023-02-01T06:03:11;19.40;;;4.00;;
5428;SDS011;2737;52.386;9.980;2023-02-01T06:05:38;19.70;;;4.20;;
5428;SDS011;2737;52.386;9.980;2023-02-01T06:08:07;17.70;;;3.80;;
5428;SDS011;2737;52.386;9.980;2023-02-01T06:10:34;14.40;;;5.57;;
5428;SDS011;2737;52.386;9.980;2023-02-01T06:13:01;24.97;;;4.17;;
5428;SDS011;2737;52.386;9.980;2023-02-01T06:15:29;28.33;;;4.53;;
5428;SDS011;2737;52.386;9.980;2023-02-01T06:17:57;17.77;;;3.93;;
5428;SDS011;2737;52.386;9.980;2023-02-01T06:20:24;21.80;;;4.53;;
5428;SDS011;2737;52.386;9.980;2023-02-01T06:22:51;19.43;;;4.33;;
5428;SDS011;2737;52.386;9.980;2023-02-01T06:25:20;16.77;;;3.10;;
5428;SDS011;2737;52.386;9.980;2023-02-01T06:27:47;17.63;;;3.10;;
5428;SDS011;2737;52.386;9.980;2023-02-01T06:30:14;24.23;;;3.77;;
5428;SDS011;2737;52.386;9.980;2023-02-01T06:32:42;17.30;;;4.70;;
5428;SDS011;2737;52.386;9.980;2023-02-01T06:35:09;18.67;;;4.70;;
5428;SDS011;2737;52.386;9.980;2023-02-01T06:37:41;16.93;;;2.93;;
5428;SDS011;2737;52.386;9.980;2023-02-01T06:40:09;13.57;;;2.70;;
5428;SDS011;2737;52.386;9.980;2023-02-01T06:42:38;17.60;;;3.10;;
5428;SDS011;2737;52.386;9.980;2023-02-01T06:45:05;15.60;;;3.00;;
5428;SDS011;2737;52.386;9.980;2023-02-01T06:47:33;9.97;;;2.90;;
5428;SDS011;2737;52.386;9.980;2023-02-01T06:50:00;9.83;;;2.57;;
5428;SDS011;2737;52.386;9.980;2023-02-01T06:52:27;16.00;;;4.17;;
5428;SDS011;2737;52.386;9.980;2023-02-01T06:54:54;10.73;;;2.90;;
5428;SDS011;2737;52.386;9.980;2023-02-01T06:57:22;6.20;;;2.20;;
5428;SDS011;2737;52.386;9.980;2023-02-01T06:59:50;11.27;;;3.13;;
5428;SDS011;2737;52.386;9.980;2023-02-01T07:02:17;11.73;;;3.20;;
5428;SDS011;2737;52.386;9.980;2023-02-01T07:04:44;15.00;;;3.47;;
5428;SDS011;2737;52.386;9.980;2023-02-01T07:07:11;14.10;;;3.30;;
5428;SDS011;2737;52.386;9.980;2023-02-01T07:09:39;16.70;;;2.73;;
5428;SDS011;2737;52.386;9.980;2023-02-01T07:12:06;11.33;;;2.80;;
5428;SDS011;2737;52.386;9.980;2023-02-01T07:14:33;14.13;;;3.00;;
5428;SDS011;2737;52.386;9.980;2023-02-01T07:17:01;11.93;;;2.90;;
5428;SDS011;2737;52.386;9.980;2023-02-01T07:19:29;13.20;;;3.20;;
5428;SDS011;2737;52.386;9.980;2023-02-01T07:21:56;12.63;;;3.20;;
5428;SDS011;2737;52.386;9.980;2023-02-01T07:24:23;13.53;;;3.27;;
5428;SDS011;2737;52.386;9.980;2023-02-01T07:26:50;13.20;;;3.30;;
5428;SDS011;2737;52.386;9.980;2023-02-01T07:29:17;16.20;;;4.30;;
5428;SDS011;2737;52.386;9.980;2023-02-01T07:31:44;19.93;;;4.00;;
5428;SDS011;2737;52.386;9.980;2023-02-01T07:34:13;9.17;;;3.07;;
5428;SDS011;2737;52.386;9.980;2023-02-01T07:36:40;17.50;;;3.20;;
5428;SDS011;2737;52.386;9.980;2023-02-01T07:39:07;18.90;;;3.20;;
5428;SDS011;2737;52.386;9.980;2023-02-01T07:41:34;15.17;;;4.27;;
5428;SDS011;2737;52.386;9.980;2023-02-01T07:44:01;12.00;;;3.03;;
5428;SDS011;2737;52.386;9.980;2023-02-01T07:46:29;20.57;;;3.57;;
5428;SDS011;2737;52.386;9.980;2023-02-01T07:48:56;16.10;;;3.23;;
5428;SDS011;2737;52.386;9.980;2023-02-01T07:51:24;14.00;;;2.80;;
5428;SDS011;2737;52.386;9.980;2023-02-01T07:53:51;18.20;;;4.00;;
5428;SDS011;2737;52.386;9.980;2023-02-01T07:56:19;28.33;;;3.37;;
5428;SDS011;2737;52.386;9.980;2023-02-01T07:58:47;16.83;;;3.33;;
5428;SDS011;2737;52.386;9.980;2023-02-01T08:01:16;17.40;;;3.23;;
5428;SDS011;2737;52.386;9.980;2023-02-01T08:03:45;16.10;;;2.93;;
5428;SDS011;2737;52.386;9.980;2023-02-01T08:06:13;18.97;;;4.17;;
5428;SDS011;2737;52.386;9.980;2023-02-01T08:08:41;9.90;;;2.73;;
5428;SDS011;2737;52.386;9.980;2023-02-01T08:11:10;18.93;;;3.50;;
5428;SDS011;2737;52.386;9.980;2023-02-01T08:13:37;19.90;;;3.37;;
5428;SDS011;2737;52.386;9.980;2023-02-01T08:16:05;18.40;;;3.00;;
5428;SDS011;2737;52.386;9.980;2023-02-01T08:18:34;27.97;;;5.40;;
5428;SDS011;2737;52.386;9.980;2023-02-01T08:21:03;9.87;;;2.20;;
5428;SDS011;2737;52.386;9.980;2023-02-01T08:23:30;16.13;;;3.30;;
5428;SDS011;2737;52.386;9.980;2023-02-01T08:26:05;24.70;;;4.80;;
5428;SDS011;2737;52.386;9.980;2023-02-01T08:28:33;27.47;;;4.43;;
5428;SDS011;2737;52.386;9.980;2023-02-01T08:31:03;12.03;;;3.00;;
5428;SDS011;2737;52.386;9.980;2023-02-01T08:33:32;16.73;;;3.37;;
5428;SDS011;2737;52.386;9.980;2023-02-01T08:36:00;13.37;;;2.70;;
5428;SDS011;2737;52.386;9.980;2023-02-01T08:38:28;16.40;;;3.20;;
5428;SDS011;2737;52.386;9.980;2023-02-01T08:40:55;17.53;;;3.63;;
5428;SDS011;2737;52.386;9.980;2023-02-01T08:43:24;24.63;;;3.63;;
5428;SDS011;2737;52.386;9.980;2023-02-01T08:45:53;22.40;;;3.03;;
5428;SDS011;2737;52.386;9.980;2023-02-01T08:48:21;13.07;;;3.03;;
5428;SDS011;2737;52.386;9.980;2023-02-01T08:50:48;11.97;;;2.80;;
5428;SDS011;2737;52.386;9.980;2023-02-01T08:53:15;19.70;;;3.07;;
5428;SDS011;2737;52.386;9.980;2023-02-01T08:55:42;15.00;;;3.40;;
5428;SDS011;2737;52.386;9.980;2023-02-01T08:58:09;16.07;;;3.27;;
5428;SDS011;2737;52.386;9.980;2023-02-01T09:00:37;18.47;;;2.90;;
5428;SDS011;2737;52.386;9.980;2023-02-01T09:03:04;14.43;;;3.00;;
5428;SDS011;2737;52.386;9.980;2023-02-01T09:05:31;12.83;;;2.70;;
5428;SDS011;2737;52.386;9.980;2023-02-01T09:07:58;14.53;;;2.63;;
5428;SDS011;2737;52.386;9.980;2023-02-01T09:10:25;21.00;;;3.77;;
5428;SDS011;2737;52.386;9.980;2023-02-01T09:12:52;11.37;;;2.90;;
5428;SDS011;2737;52.386;9.980;2023-02-01T09:15:20;14.67;;;3.10;;
5428;SDS011;2737;52.386;9.980;2023-02-01T09:17:48;23.00;;;3.03;;
5428;SDS011;2737;52.386;9.980;2023-02-01T09:20:15;8.10;;;2.37;;
5428;SDS011;2737;52.386;9.980;2023-02-01T09:22:44;13.80;;;2.53;;
5428;SDS011;2737;52.386;9.980;2023-02-01T09:25:11;21.00;;;2.93;;
5428;SDS011;2737;52.386;9.980;2023-02-01T09:27:38;12.80;;;2.50;;
5428;SDS011;2737;52.386;9.980;2023-02-01T09:30:05;7.60;;;2.20;;
5428;SDS011;2737;52.386;9.980;2023-02-01T09:32:33;20.43;;;2.53;;
5428;SDS011;2737;52.386;9.980;2023-02-01T09:35:02;9.77;;;2.47;;
5428;SDS011;2737;52.386;9.980;2023-02-01T09:37:29;7.17;;;2.37;;
5428;SDS011;2737;52.386;9.980;2023-02-01T09:39:56;19.20;;;3.03;;
5428;SDS011;2737;52.386;9.980;2023-02-01T09:42:27;8.40;;;3.10;;
5428;SDS011;2737;52.386;9.980;2023-02-01T09:45:14;13.07;;;2.90;;
5428;SDS011;2737;52.386;9.980;2023-02-01T09:47:48;14.03;;;3.13;;
5428;SDS011;2737;52.386;9.980;2023-02-01T09:50:22;13.30;;;2.60;;
5428;SDS011;2737;52.386;9.980;2023-02-01T09:52:59;26.93;;;3.80;;
5428;SDS011;2737;52.386;9.980;2023-02-01T09:55:30;24.13;;;3.70;;
5428;SDS011;2737;52.386;9.980;2023-02-01T09:58:03;16.03;;;3.03;;
5428;SDS011;2737;52.386;9.980;2023-02-01T10:00:34;12.57;;;3.30;;
5428;SDS011;2737;52.386;9.980;2023-02-01T10:03:04;20.30;;;2.93;;
5428;SDS011;2737;52.386;9.980;2023-02-01T10:05:42;20.23;;;3.33;;
5428;SDS011;2737;52.386;9.980;2023-02-01T10:08:25;13.83;;;3.23;;
5428;SDS011;2737;52.386;9.980;2023-02-01T10:11:04;18.50;;;2.80;;
5428;SDS011;2737;52.386;9.980;2023-02-01T10:13:50;19.63;;;4.03;;
5428;SDS011;2737;52.386;9.980;2023-02-01T10:16:31;10.33;;;2.10;;
5428;SDS011;2737;52.386;9.980;2023-02-01T10:19:10;13.73;;;2.63;;
5428;SDS011;2737;52.386;9.980;2023-02-01T10:22:00;17.63;;;2.50;;
5428;SDS011;2737;52.386;9.980;2023-02-01T10:24:40;15.13;;;2.60;;
5428;SDS011;2737;52.386;9.980;2023-02-01T10:27:16;17.53;;;2.87;;
5428;SDS011;2737;52.386;9.980;2023-02-01T10:29:47;11.27;;;3.07;;
5428;SDS011;2737;52.386;9.980;2023-02-01T10:32:21;17.03;;;2.70;;
5428;SDS011;2737;52.386;9.980;2023-02-01T10:34:52;11.03;;;2.30;;
5428;SDS011;2737;52.386;9.980;2023-02-01T10:37:26;17.17;;;2.60;;
5428;SDS011;2737;52.386;9.980;2023-02-01T10:39:55;17.20;;;2.23;;
5428;SDS011;2737;52.386;9.980;2023-02-01T10:42:25;20.17;;;2.37;;
5428;SDS011;2737;52.386;9.980;2023-02-01T10:44:54;14.43;;;3.10;;
5428;SDS011;2737;52.386;9.980;2023-02-01T10:47:24;18.17;;;3.60;;
5428;SDS011;2737;52.386;9.980;2023-02-01T10:49:54;28.57;;;3.53;;
5428;SDS011;2737;52.386;9.980;2023-02-01T10:52:33;9.97;;;2.83;;
5428;SDS011;2737;52.386;9.980;2023-02-01T10:58:02;10.90;;;2.30;;
5428;SDS011;2737;52.386;9.980;2023-02-01T11:00:34;12.97;;;2.30;;
5428;SDS011;2737;52.386;9.980;2023-02-01T11:03:21;15.03;;;2.53;;
5428;SDS011;2737;52.386;9.980;2023-02-01T11:06:11;17.77;;;2.33;;
5428;SDS011;2737;52.386;9.980;2023-02-01T11:08:49;11.80;;;2.33;;
5428;SDS011;2737;52.386;9.980;2023-02-01T11:11:18;9.03;;;2.10;;
5428;SDS011;2737;52.386;9.980;2023-02-01T11:13:45;10.60;;;2.13;;
5428;SDS011;2737;52.386;9.980;2023-02-01T11:16:19;17.73;;;2.93;;
5428;SDS011;2737;52.386;9.980;2023-02-01T11:18:46;10.07;;;2.43;;
5428;SDS011;2737;52.386;9.980;2023-02-01T11:21:20;16.23;;;2.53;;
5428;SDS011;2737;52.386;9.980;2023-02-01T11:23:49;16.63;;;3.07;;
5428;SDS011;2737;52.386;9.980;2023-02-01T11:26:20;25.87;;;2.70;;
5428;SDS011;2737;52.386;9.980;2023-02-01T11:28:54;19.77;;;2.70;;
5428;SDS011;2737;52.386;9.980;2023-02-01T11:31:25;14.57;;;2.70;;
5428;SDS011;2737;52.386;9.980;2023-02-01T11:33:54;11.90;;;2.73;;
5428;SDS011;2737;52.386;9.980;2023-02-01T11:36:26;16.97;;;2.83;;
5428;SDS011;2737;52.386;9.980;2023-02-01T11:39:09;7.67;;;2.17;;
5428;SDS011;2737;52.386;9.980;2023-02-01T11:41:54;25.40;;;3.30;;
5428;SDS011;2737;52.386;9.980;2023-02-01T11:44:26;13.77;;;2.77;;
5428;SDS011;2737;52.386;9.980;2023-02-01T11:47:16;20.50;;;3.27;;
5428;SDS011;2737;52.386;9.980;2023-02-01T11:49:49;16.90;;;2.37;;
5428;SDS011;2737;52.386;9.980;2023-02-01T11:52:18;15.30;;;2.80;;
5428;SDS011;2737;52.386;9.980;2023-02-01T11:55:02;15.83;;;2.83;;
5428;SDS011;2737;52.386;9.980;2023-02-01T11:57:42;8.50;;;2.23;;
5428;SDS011;2737;52.386;9.980;2023-02-01T12:00:25;15.57;;;2.53;;
5428;SDS011;2737;52.386;9.980;2023-02-01T12:03:38;17.30;;;2.90;;
5428;SDS011;2737;52.386;9.980;2023-02-01T12:06:28;12.93;;;2.80;;
5428;SDS011;2737;52.386;9.980;2023-02-01T12:09:15;17.60;;;2.87;;
5428;SDS011;2737;52.386;9.980;2023-02-01T12:12:02;10.30;;;2.50;;
5428;SDS011;2737;52.386;9.980;2023-02-01T12:14:38;12.70;;;3.07;;
5428;SDS011;2737;52.386;9.980;2023-02-01T12:17:18;16.57;;;2.30;;
5428;SDS011;2737;52.386;9.980;2023-02-01T12:20:11;9.03;;;2.17;;
5428;SDS011;2737;52.386;9.980;2023-02-01T12:22:52;16.33;;;2.40;;
5428;SDS011;2737;52.386;9.980;2023-02-01T12:25:35;10.00;;;2.40;;
5428;SDS011;2737;52.386;9.980;2023-02-01T12:31:23;11.00;;;2.40;;
5428;SDS011;2737;52.386;9.980;2023-02-01T12:34:17;9.00;;;2.50;;
5428;SDS011;2737;52.386;9.980;2023-02-01T12:36:57;21.10;;;2.87;;
5428;SDS011;2737;52.386;9.980;2023-02-01T12:39:31;14.33;;;2.67;;
5428;SDS011;2737;52.386;9.980;2023-02-01T12:42:04;19.20;;;3.83;;
5428;SDS011;2737;52.386;9.980;2023-02-01T12:44:42;15.10;;;3.57;;
5428;SDS011;2737;52.386;9.980;2023-02-01T12:47:16;16.43;;;4.17;;
5428;SDS011;2737;52.386;9.980;2023-02-01T12:49:50;8.67;;;3.87;;
5428;SDS011;2737;52.386;9.980;2023-02-01T12:52:23;11.53;;;2.30;;
5428;SDS011;2737;52.386;9.980;2023-02-01T12:55:00;8.43;;;2.47;;
5428;SDS011;2737;52.386;9.980;2023-02-01T12:57:32;12.30;;;2.40;;
5428;SDS011;2737;52.386;9.980;2023-02-01T13:00:06;8.87;;;2.30;;
5428;SDS011;2737;52.386;9.980;2023-02-01T13:02:42;5.07;;;1.80;;
5428;SDS011;2737;52.386;9.980;2023-02-01T13:05:15;11.80;;;2.67;;
5428;SDS011;2737;52.386;9.980;2023-02-01T13:07:45;8.73;;;2.40;;
5428;SDS011;2737;52.386;9.980;2023-02-01T13:10:18;9.73;;;2.70;;
5428;SDS011;2737;52.386;9.980;2023-02-01T13:12:51;11.30;;;3.83;;
5428;SDS011;2737;52.386;9.980;2023-02-01T13:15:21;15.77;;;2.93;;
5428;SDS011;2737;52.386;9.980;2023-02-01T13:17:55;10.43;;;2.50;;
5428;SDS011;2737;52.386;9.980;2023-02-01T13:20:28;6.33;;;1.70;;
5428;SDS011;2737;52.386;9.980;2023-02-01T13:22:59;9.50;;;1.73;;
5428;SDS011;2737;52.386;9.980;2023-02-01T13:25:32;6.40;;;1.50;;
5428;SDS011;2737;52.386;9.980;2023-02-01T13:28:04;9.60;;;2.10;;
5428;SDS011;2737;52.386;9.980;2023-02-01T13:30:38;11.63;;;1.93;;
5428;SDS011;2737;52.386;9.980;2023-02-01T13:33:23;8.37;;;1.67;;
5428;SDS011;2737;52.386;9.980;2023-02-01T13:36:10;6.80;;;1.77;;
5428;SDS011;2737;52.386;9.980;2023-02-01T13:41:55;1.50;;;1.00;;
5428;SDS011;2737;52.386;9.980;2023-02-01T13:44:26;3.20;;;1.00;;
5428;SDS011;2737;52.386;9.980;2023-02-01T13:46:56;5.60;;;1.20;;
5428;SDS011;2737;52.386;9.980;2023-02-01T13:49:28;2.80;;;0.90;;
5428;SDS011;2737;52.386;9.980;2023-02-01T13:51:58;2.20;;;0.90;;
5428;SDS011;2737;52.386;9.980;2023-02-01T13:54:30;6.70;;;1.50;;
5428;SDS011;2737;52.386;9.980;2023-02-01T13:56:59;5.30;;;2.33;;
5428;SDS011;2737;52.386;9.980;2023-02-01T13:59:36;5.27;;;2.10;;
5428;SDS011;2737;52.386;9.980;2023-02-01T14:02:45;1.87;;;0.80;;
5428;SDS011;2737;52.386;9.980;2023-02-01T14:08:21;2.10;;;0.70;;
5428;SDS011;2737;52.386;9.980;2023-02-01T14:10:50;0.80;;;0.60;;
5428;SDS011;2737;52.386;9.980;2023-02-01T14:13:25;3.07;;;0.60;;
5428;SDS011;2737;52.386;9.980;2023-02-01T14:16:13;1.37;;;0.73;;
5428;SDS011;2737;52.386;9.980;2023-02-01T14:18:58;1.70;;;0.80;;
5428;SDS011;2737;52.386;9.980;2023-02-01T14:21:28;2.87;;;1.20;;
5428;SDS011;2737;52.386;9.980;2023-02-01T14:24:02;3.80;;;0.90;;
5428;SDS011;2737;52.386;9.980;2023-02-01T14:26:43;2.50;;;0.90;;
5428;SDS011;2737;52.386;9.980;2023-02-01T14:32:02;2.30;;;1.07;;
5428;SDS011;2737;52.386;9.980;2023-02-01T14:34:34;2.10;;;1.00;;
5428;SDS011;2737;52.386;9.980;2023-02-01T14:37:09;1.27;;;0.53;;
5428;SDS011;2737;52.386;9.980;2023-02-01T14:39:47;1.13;;;0.70;;
5428;SDS011;2737;52.386;9.980;2023-02-01T14:42:21;0.80;;;0.73;;
5428;SDS011;2737;52.386;9.980;2023-02-01T14:44:51;2.30;;;0.93;;
5428;SDS011;2737;52.386;9.980;2023-02-01T14:50:11;3.10;;;2.00;;
5428;SDS011;2737;52.386;9.980;2023-02-01T14:55:51;3.80;;;1.33;;
5428;SDS011;2737;52.386;9.980;2023-02-01T14:58:23;2.40;;;0.90;;
5428;SDS011;2737;52.386;9.980;2023-02-01T15:00:57;4.80;;;0.83;;
5428;SDS011;2737;52.386;9.980;2023-02-01T15:03:39;2.20;;;1.00;;
5428;SDS011;2737;52.386;9.980;2023-02-01T15:06:23;2.60;;;0.80;;
5428;SDS011;2737;52.386;9.980;2023-02-01T15:08:59;5.53;;;1.40;;
5428;SDS011;2737;52.386;9.980;2023-02-01T15:11:30;3.90;;;1.17;;
5428;SDS011;2737;52.386;9.980;2023-02-01T15:13:57;6.20;;;0.90;;
5428;SDS011;2737;52.386;9.980;2023-02-01T15:16:25;2.80;;;0.90;;
5428;SDS011;2737;52.386;9.980;2023-02-01T15:19:08;5.50;;;1.97;;
5428;SDS011;2737;52.386;9.980;2023-02-01T15:21:43;6.03;;;1.43;;
5428;SDS011;2737;52.386;9.980;2023-02-01T15:24:12;8.90;;;1.33;;
5428;SDS011;2737;52.386;9.980;2023-02-01T15:26:42;7.43;;;1.53;;
5428;SDS011;2737;52.386;9.980;2023-02-01T15:29:10;9.90;;;1.60;;
5428;SDS011;2737;52.386;9.980;2023-02-01T15:31:39;6.40;;;1.67;;
5428;SDS011;2737;52.386;9.980;2023-02-01T15:34:09;7.77;;;1.00;;
5428;SDS011;2737;52.386;9.980;2023-02-01T15:36:37;3.20;;;1.57;;
5428;SDS011;2737;52.386;9.980;2023-02-01T15:39:15;6.90;;;1.20;;
5428;SDS011;2737;52.386;9.980;2023-02-01T15:41:49;3.83;;;1.30;;
5428;SDS011;2737;52.386;9.980;2023-02-01T15:44:20;3.13;;;1.27;;
5428;SDS011;2737;52.386;9.980;2023-02-01T15:46:54;6.40;;;0.90;;
5428;SDS011;2737;52.386;9.980;2023-02-01T15:49:24;10.53;;;3.03;;
5428;SDS011;2737;52.386;9.980;2023-02-01T15:51:55;6.40;;;2.80;;
5428;SDS011;2737;52.386;9.980;2023-02-01T15:54:24;6.33;;;1.83;;
5428;SDS011;2737;52.386;9.980;2023-02-01T15:56:57;6.60;;;2.80;;
5428;SDS011;2737;52.386;9.980;2023-02-01T15:59:29;8.20;;;2.13;;
5428;SDS011;2737;52.386;9.980;2023-02-01T16:02:01;11.13;;;1.90;;